To NAV CANADA Home Page Login to a new session Search on AWWS site Feedback and Comments Disclaimer Vers la page française équivalente Tips FAQ What's new on the site To the Forecasts and Observations / NOTAM section To "File a Flight Plan" website Publications and other links Update of the User's profile FIC Telephone Numbers My Weather Data Folder Route Weather Data Regional Weather Data Local Weather Data To the Forecasts and Observations / NOTAM section
Request Generated 05/26/2015 at 05:26:35 UTC . Weather information available at that time is displayed.

METAR/TAF

RANKIN INLET/NU    

METAR CYRT 260500Z 34026G31KT 15SM DRSN OVC015 M05/M08 A2990 RMK SC8
SLP127=
METAR CYRT 260400Z 33020G28KT 15SM DRSN OVC015 M05/M07 A2990 RMK SC8
SLP130=
METAR CYRT 260300Z 33024G29KT 10SM DRSN OVC015 M04/M06 A2990 RMK SC8
SLP128=

TAF CYRT 252338Z 2600/2612 34022G32KT P6SM BKN025 TEMPO 2600/2604 4SM
-SN BLSN BKN015
FM260400 32018KT P6SM BKN025 TEMPO 2604/2612 BKN020
RMK NXT FCST BY 260600Z=
Your time UTC time
Weather data provided by Environment Canada and NAV CANADA